createdAt,value
2022-10-25T00:04:33.674Z,11.63
2022-10-25T00:09:36.426Z,11.98
2022-10-25T00:14:38.999Z,12.06
2022-10-25T00:19:43.126Z,12.07
2022-10-25T00:24:46.400Z,12.14
2022-10-25T00:29:49.173Z,12.15
2022-10-25T00:34:53.564Z,11.87
2022-10-25T00:39:56.348Z,11.97
2022-10-25T00:44:59.427Z,12.06
2022-10-25T00:50:04.720Z,12.01
2022-10-25T00:55:09.309Z,12.03
2022-10-25T01:00:12.921Z,11.90
2022-10-25T01:05:18.144Z,11.62
2022-10-25T01:10:20.971Z,12.10
2022-10-25T01:15:26.163Z,11.85
2022-10-25T01:21:10.387Z,11.88
2022-10-25T01:26:34.862Z,12.16
2022-10-25T01:31:44.919Z,12.26
2022-10-25T01:36:57.021Z,12.27
2022-10-25T01:42:07.379Z,12.08
2022-10-25T01:47:18.519Z,12.38
2022-10-25T01:52:23.095Z,12.30
2022-10-25T01:57:43.667Z,12.21
2022-10-25T02:03:02.533Z,12.37
2022-10-25T02:08:14.265Z,12.19
2022-10-25T02:13:24.091Z,12.13
2022-10-25T02:23:40.661Z,12.22
2022-10-25T02:28:43.749Z,12.22
2022-10-25T02:33:48.856Z,12.09
2022-10-25T02:38:53.152Z,12.53
2022-10-25T02:43:55.980Z,12.48
2022-10-25T02:49:00.077Z,12.34
2022-10-25T02:54:02.879Z,12.31
2022-10-25T02:59:05.756Z,12.38
2022-10-25T03:04:09.911Z,12.50
2022-10-25T03:09:12.665Z,12.58
2022-10-25T03:14:15.611Z,12.07
2022-10-25T03:19:19.721Z,12.31
2022-10-25T03:24:22.481Z,11.93
2022-10-25T03:29:25.127Z,11.87
2022-10-25T03:34:29.399Z,12.10
2022-10-25T03:39:32.197Z,11.80
2022-10-25T03:44:35.054Z,11.93
2022-10-25T03:49:39.207Z,11.98
2022-10-25T03:54:42.364Z,12.12
2022-10-25T03:59:45.444Z,12.29
2022-10-25T04:04:49.600Z,12.17
2022-10-25T04:09:52.349Z,12.09
2022-10-25T04:14:55.136Z,11.99
2022-10-25T04:19:59.080Z,12.04
2022-10-25T04:25:01.988Z,12.16
2022-10-25T04:30:05.234Z,12.22
2022-10-25T04:35:10.913Z,12.19
2022-10-25T04:40:14.098Z,12.35
2022-10-25T04:45:17.045Z,12.15
2022-10-25T04:50:21.467Z,12.46
2022-10-25T04:55:24.192Z,12.17
2022-10-25T05:00:27.296Z,12.13
2022-10-25T05:05:31.396Z,12.29
2022-10-25T05:10:34.178Z,12.10
2022-10-25T05:15:37.046Z,12.56
2022-10-25T05:20:41.151Z,12.30
2022-10-25T05:25:43.908Z,12.33
2022-10-25T05:30:46.760Z,12.32
2022-10-25T05:35:50.908Z,12.22
2022-10-25T05:40:54.855Z,12.39
2022-10-25T05:46:03.666Z,12.38
2022-10-25T05:51:32.234Z,12.47
2022-10-25T05:56:36.643Z,12.41
2022-10-25T06:01:41.531Z,12.52
2022-10-25T06:06:48.052Z,12.46
2022-10-25T06:11:50.817Z,12.58
2022-10-25T06:16:53.647Z,12.46
2022-10-25T06:21:57.760Z,12.36
2022-10-25T06:27:00.513Z,12.41
2022-10-25T06:32:03.735Z,12.38
2022-10-25T06:37:08.017Z,12.10
2022-10-25T06:42:10.794Z,12.25
2022-10-25T06:47:17.410Z,12.37
2022-10-25T06:52:21.962Z,12.56
2022-10-25T06:57:24.676Z,12.41
2022-10-25T07:02:27.369Z,12.49
2022-10-25T07:07:31.546Z,12.37
2022-10-25T07:12:38.054Z,12.40
2022-10-25T07:17:40.950Z,12.54
2022-10-25T07:22:45.069Z,12.52
2022-10-25T07:27:48.076Z,12.57
2022-10-25T07:32:51.137Z,12.91
2022-10-25T07:37:55.392Z,12.46
2022-10-25T07:42:58.209Z,12.77
2022-10-25T07:48:01.229Z,12.69
2022-10-25T07:53:05.396Z,12.87
2022-10-25T07:58:10.709Z,12.80
2022-10-25T08:03:13.554Z,13.45
2022-10-25T08:08:17.793Z,14.03
2022-10-25T08:13:20.609Z,13.38
2022-10-25T08:18:23.856Z,13.54
2022-10-25T08:23:29.307Z,13.74
2022-10-25T08:28:32.242Z,14.15
2022-10-25T08:33:35.073Z,14.75
2022-10-25T08:38:39.255Z,14.50
2022-10-25T08:43:55.321Z,14.22
2022-10-25T08:49:11.555Z,14.41
2022-10-25T08:54:24.033Z,14.35
2022-10-25T08:59:31.143Z,14.15
2022-10-25T09:04:34.604Z,14.14
2022-10-25T09:09:49.081Z,14.28
2022-10-25T09:15:01.558Z,13.96
2022-10-25T09:20:07.552Z,14.43
2022-10-25T09:25:21.581Z,14.78
2022-10-25T09:30:24.333Z,14.59
2022-10-25T09:35:32.048Z,14.79
2022-10-25T09:40:47.976Z,14.84
2022-10-25T09:45:55.233Z,14.54
2022-10-25T09:51:06.593Z,14.42
2022-10-25T09:56:10.845Z,14.26
2022-10-25T10:01:17.941Z,14.24
2022-10-25T10:06:23.871Z,14.17
2022-10-25T10:11:29.317Z,14.64
2022-10-25T10:16:35.577Z,14.55
2022-10-25T10:21:42.320Z,14.15
2022-10-25T10:26:51.477Z,14.60
2022-10-25T10:31:56.553Z,14.99
2022-10-25T10:37:03.854Z,16.27
2022-10-25T10:42:17.611Z,15.53
2022-10-25T10:47:22.600Z,15.72
2022-10-25T10:52:29.393Z,15.60
2022-10-25T10:57:36.043Z,16.52
2022-10-25T11:02:41.393Z,16.51
2022-10-25T11:07:44.597Z,16.81
2022-10-25T11:13:06.532Z,15.81
2022-10-25T11:18:10.642Z,15.73
2022-10-25T11:23:20.346Z,16.07
2022-10-25T11:28:41.533Z,15.27
2022-10-25T11:33:58.457Z,15.60
2022-10-25T11:39:12.224Z,15.45
2022-10-25T11:44:54.919Z,14.90
2022-10-25T11:50:12.730Z,14.97
2022-10-25T11:55:28.396Z,15.58
2022-10-25T12:00:45.421Z,16.08
2022-10-25T12:05:57.659Z,15.68
2022-10-25T12:11:05.573Z,15.80
2022-10-25T12:16:15.250Z,15.78
2022-10-25T12:21:23.135Z,15.57
2022-10-25T12:26:30.488Z,15.68
2022-10-25T12:31:39.131Z,17.29
2022-10-25T12:36:45.021Z,16.57
2022-10-25T12:41:52.461Z,17.46
2022-10-25T12:47:14.411Z,17.04
2022-10-25T12:52:29.338Z,16.32
2022-10-25T12:57:46.104Z,15.97
2022-10-25T13:03:25.421Z,17.07
2022-10-25T13:08:30.270Z,16.84
2022-10-25T13:13:35.434Z,16.02
2022-10-25T13:18:46.002Z,17.43
2022-10-25T13:24:10.106Z,18.52
2022-10-25T13:29:47.606Z,18.68
2022-10-25T13:34:51.775Z,18.38
2022-10-25T13:39:55.331Z,17.74
2022-10-25T13:45:06.109Z,16.98
2022-10-25T13:55:25.240Z,18.16
2022-10-25T14:00:37.321Z,18.10
2022-10-25T14:06:23.766Z,17.17
2022-10-25T14:11:36.476Z,17.40
2022-10-25T14:16:45.588Z,17.32
2022-10-25T14:21:52.481Z,17.21
2022-10-25T14:26:56.751Z,16.01
2022-10-25T14:31:59.935Z,15.77
2022-10-25T14:37:04.092Z,15.46
2022-10-25T14:42:17.350Z,15.30
2022-10-25T14:47:30.636Z,15.40
2022-10-25T14:52:34.866Z,15.42
2022-10-25T14:57:37.685Z,15.69
2022-10-25T15:02:41.533Z,15.53
2022-10-25T15:07:47.862Z,15.11
2022-10-25T15:12:52.273Z,15.22
2022-10-25T15:17:55.107Z,15.25
2022-10-25T15:23:07.166Z,15.20
2022-10-25T15:28:11.712Z,15.32
2022-10-25T15:33:17.039Z,15.23
2022-10-25T15:38:21.105Z,15.04
2022-10-25T15:43:23.861Z,15.19
2022-10-25T15:48:26.649Z,15.07
2022-10-25T15:53:30.757Z,14.99
2022-10-25T15:58:33.509Z,15.05
2022-10-25T16:03:36.239Z,14.97
2022-10-25T16:08:40.454Z,14.80
2022-10-25T16:13:46.348Z,14.65
2022-10-25T16:18:49.133Z,14.27
2022-10-25T16:23:53.235Z,14.30
2022-10-25T16:28:56.121Z,14.29
2022-10-25T16:33:58.832Z,13.99
2022-10-25T16:39:04.211Z,14.11
2022-10-25T16:44:07.479Z,14.15
2022-10-25T16:49:10.293Z,14.06
2022-10-25T16:54:15.642Z,14.01
2022-10-25T16:59:18.556Z,13.92
2022-10-25T17:04:23.286Z,13.83
2022-10-25T17:09:27.373Z,13.75
2022-10-25T17:14:30.156Z,13.66
2022-10-25T17:19:32.965Z,13.61
2022-10-25T17:24:37.630Z,13.62
2022-10-25T17:29:40.564Z,13.58
2022-10-25T17:34:43.245Z,13.44
2022-10-25T17:39:47.132Z,13.43
2022-10-25T17:44:50.077Z,13.36
2022-10-25T17:49:54.246Z,13.35
2022-10-25T17:54:58.289Z,13.29
2022-10-25T18:00:00.985Z,13.24
2022-10-25T18:10:27.709Z,13.12
2022-10-25T18:15:30.351Z,13.03
2022-10-25T18:20:32.825Z,12.89
2022-10-25T18:25:36.861Z,12.84
2022-10-25T18:30:39.553Z,12.72
2022-10-25T18:35:42.122Z,12.66
2022-10-25T18:40:46.121Z,12.62
2022-10-25T18:45:48.802Z,12.57
2022-10-25T18:50:51.300Z,12.56
2022-10-25T18:55:55.333Z,12.48
2022-10-25T19:00:58.295Z,12.42
2022-10-25T19:06:01.027Z,12.42
2022-10-25T19:11:05.804Z,12.32
2022-10-25T19:16:09.470Z,12.33
2022-10-25T19:21:14.710Z,12.28
2022-10-25T19:26:20.676Z,12.24
2022-10-25T19:31:23.478Z,12.16
2022-10-25T19:36:26.008Z,12.15
2022-10-25T19:41:30.120Z,12.11
2022-10-25T19:46:32.920Z,12.02
2022-10-25T19:51:35.643Z,11.98
2022-10-25T19:56:39.596Z,11.88
2022-10-25T20:01:43.498Z,11.84
2022-10-25T20:06:46.328Z,11.81
2022-10-25T20:11:50.248Z,11.67
2022-10-25T20:16:52.994Z,11.59
2022-10-25T20:21:55.573Z,11.53
2022-10-25T20:27:01.893Z,11.43
2022-10-25T20:32:04.886Z,11.44
2022-10-25T20:37:09.704Z,11.41
2022-10-25T20:42:13.812Z,11.40
2022-10-25T20:47:16.604Z,11.35
2022-10-25T20:52:19.378Z,11.28
2022-10-25T20:57:23.505Z,11.15
2022-10-25T21:02:26.414Z,11.15
2022-10-25T21:07:30.878Z,11.11
2022-10-25T21:12:35.036Z,11.03
2022-10-25T21:17:37.766Z,11.02
2022-10-25T21:22:41.071Z,10.98
2022-10-25T21:27:45.403Z,10.88
2022-10-25T21:32:48.377Z,10.79
2022-10-25T21:37:51.394Z,10.64
2022-10-25T21:42:58.801Z,10.60
2022-10-25T21:48:01.536Z,10.56
2022-10-25T21:53:04.164Z,10.54
2022-10-25T21:58:08.244Z,10.55
2022-10-25T22:03:11.040Z,10.51
2022-10-25T22:08:13.765Z,10.41
2022-10-25T22:13:17.649Z,10.35
2022-10-25T22:18:20.368Z,10.34
2022-10-25T22:23:23.000Z,10.31
2022-10-25T22:28:27.101Z,10.21
2022-10-25T22:33:30.561Z,10.23
2022-10-25T22:38:34.862Z,10.28
2022-10-25T22:43:39.714Z,10.19
2022-10-25T22:48:44.288Z,10.22
2022-10-25T22:53:47.128Z,10.14
2022-10-25T22:58:52.883Z,10.19
2022-10-25T23:03:57.118Z,10.16
2022-10-25T23:09:02.115Z,10.10
2022-10-25T23:14:07.405Z,10.11
2022-10-25T23:19:10.269Z,10.04
2022-10-25T23:24:13.001Z,10.03
2022-10-25T23:29:16.917Z,9.92
2022-10-25T23:34:19.691Z,9.87
2022-10-25T23:39:22.521Z,9.86
2022-10-25T23:44:26.437Z,9.81
2022-10-25T23:49:29.148Z,9.87
2022-10-25T23:54:31.680Z,9.82
2022-10-25T23:59:35.802Z,9.85
